createdAt,value
2023-04-09T00:04:26.522Z,100.00
2023-04-09T00:09:22.821Z,100.00
2023-04-09T00:14:19.258Z,100.00
2023-04-09T00:19:15.715Z,100.00
2023-04-09T00:24:12.164Z,100.00
2023-04-09T00:29:08.452Z,100.00
2023-04-09T00:34:05.332Z,100.00
2023-04-09T00:39:01.582Z,100.00
2023-04-09T00:43:57.815Z,100.00
2023-04-09T00:48:54.286Z,100.00
2023-04-09T00:53:50.749Z,100.00
2023-04-09T00:58:46.988Z,100.00
2023-04-09T01:03:43.371Z,100.00
2023-04-09T01:08:54.606Z,100.00
2023-04-09T01:13:59.330Z,100.00
2023-04-09T01:18:58.231Z,100.00
2023-04-09T01:24:19.159Z,100.00
2023-04-09T01:29:16.548Z,100.00
2023-04-09T01:34:14.017Z,100.00
2023-04-09T01:39:10.480Z,100.00
2023-04-09T01:44:07.742Z,100.00
2023-04-09T01:49:04.273Z,100.00
2023-04-09T01:54:00.749Z,100.00
2023-04-09T01:58:57.000Z,100.00
2023-04-09T02:03:58.329Z,100.00
2023-04-09T02:08:55.338Z,100.00
2023-04-09T02:13:54.259Z,100.00
2023-04-09T02:18:54.902Z,100.00
2023-04-09T02:23:51.427Z,100.00
2023-04-09T02:28:48.019Z,100.00
2023-04-09T02:33:44.249Z,100.00
2023-04-09T02:38:43.574Z,100.00
2023-04-09T02:43:39.840Z,100.00
2023-04-09T02:48:36.110Z,100.00
2023-04-09T02:53:32.348Z,100.00
2023-04-09T02:58:28.877Z,100.00
2023-04-09T03:03:25.442Z,100.00
2023-04-09T03:08:21.695Z,100.00
2023-04-09T03:13:17.969Z,100.00
2023-04-09T03:18:14.621Z,100.00
2023-04-09T03:23:11.039Z,100.00
2023-04-09T03:28:07.260Z,100.00
2023-04-09T03:33:03.627Z,100.00
2023-04-09T03:37:59.911Z,100.00
2023-04-09T03:42:56.141Z,100.00
2023-04-09T03:47:52.477Z,100.00
2023-04-09T03:52:48.820Z,100.00
2023-04-09T03:57:45.098Z,100.00
2023-04-09T04:02:41.524Z,100.00
2023-04-09T04:07:38.201Z,100.00
2023-04-09T04:12:34.458Z,100.00
2023-04-09T04:17:30.725Z,100.00
2023-04-09T04:22:26.963Z,100.00
2023-04-09T04:27:23.237Z,100.00
2023-04-09T04:32:19.455Z,100.00
2023-04-09T04:37:15.891Z,100.00
2023-04-09T04:42:12.117Z,100.00
2023-04-09T04:47:08.380Z,100.00
2023-04-09T04:52:04.756Z,100.00
2023-04-09T04:57:01.467Z,100.00
2023-04-09T05:01:57.818Z,100.00
2023-04-09T05:06:54.087Z,100.00
2023-04-09T05:11:50.375Z,100.00
2023-04-09T05:16:47.110Z,100.00
2023-04-09T05:21:44.107Z,100.00
2023-04-09T05:26:41.335Z,100.00
2023-04-09T05:31:37.784Z,100.00
2023-04-09T05:36:34.030Z,100.00
2023-04-09T05:41:30.290Z,100.00
2023-04-09T05:46:27.301Z,100.00
2023-04-09T05:51:23.661Z,100.00
2023-04-09T05:56:22.662Z,100.00
2023-04-09T06:01:19.562Z,100.00
2023-04-09T06:06:16.435Z,100.00
2023-04-09T06:11:13.374Z,100.00
2023-04-09T06:16:10.440Z,100.00
2023-04-09T06:21:07.529Z,100.00
2023-04-09T06:26:03.818Z,100.00
2023-04-09T06:31:00.290Z,100.00
2023-04-09T06:35:56.583Z,100.00
2023-04-09T06:40:52.855Z,100.00
2023-04-09T06:45:49.516Z,100.00
2023-04-09T06:50:45.828Z,100.00
2023-04-09T06:55:42.128Z,100.00
2023-04-09T07:00:38.445Z,100.00
2023-04-09T07:05:34.879Z,100.00
2023-04-09T07:10:31.301Z,100.00
2023-04-09T07:15:27.554Z,100.00
2023-04-09T07:20:23.877Z,100.00
2023-04-09T07:25:21.219Z,100.00
2023-04-09T07:30:17.536Z,100.00
2023-04-09T07:35:13.812Z,100.00
2023-04-09T07:40:10.719Z,100.00
2023-04-09T07:45:07.763Z,100.00
2023-04-09T07:50:04.172Z,100.00
2023-04-09T07:55:00.681Z,100.00
2023-04-09T07:59:56.969Z,100.00
2023-04-09T08:04:53.293Z,100.00
2023-04-09T08:09:49.618Z,100.00
2023-04-09T08:14:45.950Z,100.00
2023-04-09T08:19:42.295Z,100.00
2023-04-09T08:24:40.141Z,100.00
2023-04-09T08:29:36.443Z,100.00
2023-04-09T08:34:32.678Z,100.00
2023-04-09T08:39:28.948Z,100.00
2023-04-09T08:44:28.671Z,100.00
2023-04-09T08:49:24.924Z,100.00
2023-04-09T08:54:21.195Z,100.00
2023-04-09T08:59:21.149Z,100.00
2023-04-09T09:04:17.522Z,100.00
2023-04-09T09:09:14.821Z,100.00
2023-04-09T09:14:15.968Z,100.00
2023-04-09T09:19:28.549Z,100.00
2023-04-09T09:24:24.776Z,100.00
2023-04-09T09:29:21.196Z,100.00
2023-04-09T09:34:18.185Z,100.00
2023-04-09T09:39:17.178Z,100.00
2023-04-09T09:44:30.587Z,100.00
2023-04-09T09:49:27.104Z,100.00
2023-04-09T09:54:25.250Z,100.00
2023-04-09T09:59:23.105Z,100.00
2023-04-09T10:04:19.982Z,100.00
2023-04-09T10:09:16.544Z,100.00
2023-04-09T10:14:13.511Z,100.00
2023-04-09T10:19:14.047Z,100.00
2023-04-09T10:24:10.607Z,100.00
2023-04-09T10:29:08.128Z,100.00
2023-04-09T10:34:04.696Z,100.00
2023-04-09T10:39:11.465Z,100.00
2023-04-09T10:44:19.638Z,100.00
2023-04-09T10:49:17.877Z,100.00
2023-04-09T10:54:32.569Z,100.00
2023-04-09T10:59:28.838Z,100.00
2023-04-09T11:04:28.677Z,100.00
2023-04-09T11:09:24.972Z,100.00
2023-04-09T11:14:21.604Z,100.00
2023-04-09T11:19:18.719Z,100.00
2023-04-09T11:24:15.519Z,100.00
2023-04-09T11:29:12.853Z,99.35
2023-04-09T11:34:10.116Z,94.35
2023-04-09T11:39:06.534Z,94.56
2023-04-09T11:44:06.453Z,87.89
2023-04-09T11:49:03.158Z,87.98
2023-04-09T11:54:06.407Z,86.78
2023-04-09T11:59:03.241Z,87.52
2023-04-09T12:04:00.772Z,84.27
2023-04-09T12:08:58.374Z,83.99
2023-04-09T12:14:04.389Z,78.78
2023-04-09T12:19:07.390Z,77.51
2023-04-09T12:24:03.707Z,79.66
2023-04-09T12:29:00.232Z,77.91
2023-04-09T12:33:56.792Z,75.89
2023-04-09T12:38:53.416Z,76.27
2023-04-09T12:43:50.218Z,73.10
2023-04-09T12:48:47.094Z,70.42
2023-04-09T12:53:43.384Z,72.19
2023-04-09T12:58:39.697Z,72.54
2023-04-09T13:03:36.207Z,70.53
2023-04-09T13:08:32.871Z,66.48
2023-04-09T13:13:29.705Z,71.63
2023-04-09T13:18:26.126Z,71.76
2023-04-09T13:23:22.462Z,70.27
2023-04-09T13:28:18.895Z,65.91
2023-04-09T13:33:15.428Z,67.13
2023-04-09T13:38:11.886Z,65.78
2023-04-09T13:43:08.337Z,65.02
2023-04-09T13:48:06.179Z,62.76
2023-04-09T13:53:05.216Z,60.76
2023-04-09T13:58:01.517Z,57.61
2023-04-09T14:02:58.392Z,57.13
2023-04-09T14:07:54.732Z,56.19
2023-04-09T14:12:51.424Z,59.96
2023-04-09T14:17:47.735Z,56.00
2023-04-09T14:22:49.013Z,51.35
2023-04-09T14:27:45.593Z,54.27
2023-04-09T14:32:43.158Z,57.58
2023-04-09T14:37:41.070Z,58.84
2023-04-09T14:42:37.468Z,61.18
2023-04-09T14:47:33.833Z,59.20
2023-04-09T14:52:30.546Z,61.63
2023-04-09T14:57:26.850Z,61.61
2023-04-09T15:02:23.235Z,61.38
2023-04-09T15:07:19.624Z,63.07
2023-04-09T15:12:16.145Z,63.03
2023-04-09T15:17:12.454Z,66.19
2023-04-09T15:22:08.754Z,66.71
2023-04-09T15:27:05.598Z,66.20
2023-04-09T15:32:02.362Z,68.88
2023-04-09T15:36:58.785Z,68.49
2023-04-09T15:41:58.293Z,67.95
2023-04-09T15:46:54.579Z,67.28
2023-04-09T15:51:50.851Z,70.51
2023-04-09T15:56:47.217Z,66.21
2023-04-09T16:01:44.241Z,66.64
2023-04-09T16:06:40.657Z,68.75
2023-04-09T16:11:37.516Z,68.64
2023-04-09T16:16:33.896Z,66.17
2023-04-09T16:21:30.227Z,64.45
2023-04-09T16:26:26.547Z,63.45
2023-04-09T16:31:23.072Z,64.91
2023-04-09T16:36:19.441Z,63.66
2023-04-09T16:41:15.794Z,61.80
2023-04-09T16:46:12.203Z,63.56
2023-04-09T16:51:08.694Z,61.82
2023-04-09T16:56:05.202Z,60.44
2023-04-09T17:01:02.050Z,61.44
2023-04-09T17:05:58.558Z,62.42
2023-04-09T17:11:01.748Z,62.79
2023-04-09T17:15:58.700Z,63.77
2023-04-09T17:20:55.090Z,61.73
2023-04-09T17:25:51.552Z,54.25
2023-04-09T17:30:48.022Z,48.51
2023-04-09T17:35:44.656Z,44.11
2023-04-09T17:40:41.006Z,44.32
2023-04-09T17:45:37.337Z,48.39
2023-04-09T17:50:33.629Z,54.24
2023-04-09T17:55:30.544Z,58.83
2023-04-09T18:00:26.967Z,64.65
2023-04-09T18:05:23.692Z,69.62
2023-04-09T18:10:20.268Z,77.11
2023-04-09T18:15:18.986Z,93.12
2023-04-09T18:20:15.549Z,100.00
2023-04-09T18:25:12.015Z,100.00
2023-04-09T18:30:08.518Z,100.00
2023-04-09T18:35:04.985Z,100.00
2023-04-09T18:40:02.663Z,100.00
2023-04-09T18:44:59.252Z,100.00
2023-04-09T18:49:55.551Z,100.00
2023-04-09T18:54:51.896Z,100.00
2023-04-09T18:59:48.231Z,100.00
2023-04-09T19:04:45.042Z,100.00
2023-04-09T19:09:42.079Z,100.00
2023-04-09T19:14:40.163Z,100.00
2023-04-09T19:19:37.310Z,100.00
2023-04-09T19:24:33.804Z,100.00
2023-04-09T19:29:30.457Z,100.00
2023-04-09T19:34:26.770Z,100.00
2023-04-09T19:39:23.114Z,100.00
2023-04-09T19:44:19.403Z,100.00
2023-04-09T19:49:15.693Z,100.00
2023-04-09T19:54:11.963Z,100.00
2023-04-09T19:59:08.349Z,100.00
2023-04-09T20:04:05.264Z,100.00
2023-04-09T20:09:02.114Z,100.00
2023-04-09T20:13:58.473Z,100.00
2023-04-09T20:18:55.153Z,100.00
2023-04-09T20:23:51.618Z,100.00
2023-04-09T20:28:48.257Z,100.00
2023-04-09T20:33:44.630Z,100.00
2023-04-09T20:38:40.939Z,100.00
2023-04-09T20:43:38.368Z,100.00
2023-04-09T20:48:34.633Z,100.00
2023-04-09T20:53:30.920Z,100.00
2023-04-09T20:58:27.443Z,100.00
2023-04-09T21:03:23.951Z,100.00
2023-04-09T21:08:20.638Z,100.00
2023-04-09T21:13:16.907Z,100.00
2023-04-09T21:18:13.202Z,100.00
2023-04-09T21:23:09.522Z,100.00
2023-04-09T21:28:06.365Z,100.00
2023-04-09T21:33:05.651Z,100.00
2023-04-09T21:38:03.022Z,100.00
2023-04-09T21:42:59.292Z,100.00
2023-04-09T21:47:55.758Z,100.00
2023-04-09T21:52:52.052Z,100.00
2023-04-09T21:57:48.331Z,100.00
2023-04-09T22:02:44.765Z,100.00
2023-04-09T22:07:42.391Z,100.00
2023-04-09T22:12:38.705Z,100.00
2023-04-09T22:17:35.105Z,100.00
2023-04-09T22:22:32.279Z,100.00
2023-04-09T22:27:28.550Z,100.00
2023-04-09T22:32:24.947Z,100.00
2023-04-09T22:37:21.565Z,100.00
2023-04-09T22:42:17.928Z,100.00
2023-04-09T22:47:14.190Z,100.00
2023-04-09T22:52:10.458Z,100.00
2023-04-09T22:57:06.738Z,100.00
2023-04-09T23:02:03.114Z,100.00
2023-04-09T23:07:00.129Z,100.00
2023-04-09T23:11:57.056Z,100.00
2023-04-09T23:16:53.328Z,100.00
2023-04-09T23:21:49.591Z,100.00
2023-04-09T23:26:45.890Z,100.00
2023-04-09T23:31:42.200Z,100.00
2023-04-09T23:36:38.632Z,100.00
2023-04-09T23:41:35.024Z,100.00
2023-04-09T23:46:31.450Z,100.00
2023-04-09T23:51:27.881Z,100.00
2023-04-09T23:56:25.064Z,100.00
